Terminal Aerodrome Forecast
Issued by NWS Wilmington, OH

Current Version | Previous Version | Graphics & Text | Print | Product List | Glossary On
Versions: 1 2 3 4 5 6 7 8 9 10 11 12 13 14 15 16 17 18 19 20
000
FTUS41 KILN 252055 AAA
TAFCVG
TAF AMD
KCVG 252055Z 2521/2624 20003KT P6SM FEW040 BKN250
     FM260000 00000KT P6SM SCT250
      TEMPO 2610/2612 5SM BR
     FM261700 VRB04KT P6SM SCT040=

USA.gov is the U.S. government's official web portal to all federal, state and local government web resources and services.